Time;durP1;ratioP1;P1;durP2;ratioP2;P2;SDS_P1;SDS_P2;PMS_P1;PMS_P2;Temp;Humidity;BMP_temperature;BMP_pressure;BME280_temperature;BME280_humidity;BME280_pressure;Samples;Min_cycle;Max_cycle;Signal;HPM_P1;HPM_P2
2023/08/30 00:00:51;;;;;;;;;;;20.60;51.90;;;;;;1471099;79;1134;-55
2023/08/30 00:02:53;;;;;;;;;;;20.60;51.80;;;;;;1466644;79;794;-55
2023/08/30 00:04:57;;;;;;;;;;;20.60;51.80;;;;;;1466265;79;667;-53
2023/08/30 00:06:58;;;;;;;;;;;20.60;51.80;;;;;;1465103;79;2002;-52
2023/08/30 00:09:00;;;;;;;;;;;20.60;51.80;;;;;;1462923;79;737;-54
2023/08/30 00:11:04;;;;;;;;;;;20.60;51.80;;;;;;1470500;79;1521;-55
2023/08/30 00:13:06;;;;;;;;;;;20.60;51.80;;;;;;1470030;79;688;-55
2023/08/30 00:15:08;;;;;;;;;;;20.60;51.70;;;;;;1470338;79;676;-54
2023/08/30 00:17:09;;;;;;;;;;;20.50;51.70;;;;;;1474992;79;687;-52
2023/08/30 00:19:11;;;;;;;;;;;20.50;51.80;;;;;;1465675;79;1093;-54
2023/08/30 00:21:13;;;;;;;;;;;20.50;51.70;;;;;;1464144;79;713;-53
2023/08/30 00:23:16;;;;;;;;;;;20.50;51.70;;;;;;1469540;79;689;-54
2023/08/30 00:25:18;;;;;;;;;;;20.60;51.70;;;;;;1467306;79;708;-54
2023/08/30 00:27:20;;;;;;;;;;;20.60;51.80;;;;;;1464403;79;1929;-52
2023/08/30 00:29:22;;;;;;;;;;;20.60;51.80;;;;;;1459377;79;1163;-53
2023/08/30 00:31:24;;;;;;;;;;;20.50;51.80;;;;;;1477298;79;680;-52
2023/08/30 00:33:26;;;;;;;;;;;20.60;51.70;;;;;;1468521;79;679;-55
2023/08/30 00:35:27;;;;;;;;;;;20.60;51.70;;;;;;1468652;79;761;-53
2023/08/30 00:37:29;;;;;;;;;;;20.60;51.60;;;;;;1458370;79;1571;-54
2023/08/30 00:39:31;;;;;;;;;;;20.60;51.60;;;;;;1471411;79;1111;-54
2023/08/30 00:41:33;;;;;;;;;;;20.60;51.60;;;;;;1464749;79;760;-51
2023/08/30 00:43:35;;;;;;;;;;;20.60;51.50;;;;;;1470006;79;752;-51
2023/08/30 00:45:37;;;;;;;;;;;20.60;51.60;;;;;;1468688;79;687;-55
2023/08/30 00:47:39;;;;;;;;;;;20.60;51.50;;;;;;1474067;79;1937;-53
2023/08/30 00:49:41;;;;;;;;;;;20.60;51.50;;;;;;1452044;79;1067;-55
2023/08/30 00:51:43;;;;;;;;;;;20.60;51.50;;;;;;1467186;79;1557;-55
2023/08/30 00:53:45;;;;;;;;;;;20.60;51.50;;;;;;1454175;79;671;-54
2023/08/30 00:55:47;;;;;;;;;;;20.70;51.60;;;;;;1460726;79;707;-54
2023/08/30 00:57:49;;;;;;;;;;;20.70;51.50;;;;;;1467521;79;686;-52
2023/08/30 00:59:51;;;;;;;;;;;20.60;51.40;;;;;;1478818;79;1162;-53
2023/08/30 01:01:53;;;;;;;;;;;20.70;51.50;;;;;;1481211;79;755;-53
2023/08/30 01:03:55;;;;;;;;;;;20.70;51.50;;;;;;1469685;79;683;-54
2023/08/30 01:05:57;;;;;;;;;;;20.70;51.50;;;;;;1464312;79;1378;-52
2023/08/30 01:07:59;;;;;;;;;;;20.70;51.40;;;;;;1452382;79;1952;-55
2023/08/30 01:10:01;;;;;;;;;;;20.70;51.40;;;;;;1463097;79;1181;-52
2023/08/30 01:12:07;;;;;;;;;;;20.70;51.30;;;;;;1469492;79;762;-53
2023/08/30 01:14:09;;;;;;;;;;;20.70;51.30;;;;;;1462727;79;740;-54
2023/08/30 01:16:11;;;;;;;;;;;20.70;51.30;;;;;;1454064;79;732;-54
2023/08/30 01:18:13;;;;;;;;;;;20.70;51.30;;;;;;1462224;79;673;-54
2023/08/30 01:20:22;;;;;;;;;;;20.70;51.30;;;;;;1458050;79;1525;-52
2023/08/30 01:22:23;;;;;;;;;;;20.70;51.30;;;;;;1454274;79;1498;-53
2023/08/30 01:24:36;;;;;;;;;;;20.80;51.30;;;;;;1467250;79;1871;-52
2023/08/30 01:26:43;;;;;;;;;;;20.70;51.30;;;;;;1462747;79;1948;-52
2023/08/30 01:28:44;;;;;;;;;;;20.70;51.30;;;;;;1472247;79;1440;-52
2023/08/30 01:30:46;;;;;;;;;;;20.70;51.20;;;;;;1461593;79;1139;-54
2023/08/30 01:32:48;;;;;;;;;;;20.70;51.20;;;;;;1469596;79;692;-51
2023/08/30 01:34:50;;;;;;;;;;;20.70;51.10;;;;;;1454358;79;1611;-51
2023/08/30 01:36:52;;;;;;;;;;;20.70;51.10;;;;;;1465187;79;728;-55
2023/08/30 01:38:54;;;;;;;;;;;20.70;51.10;;;;;;1470248;79;707;-53
2023/08/30 01:40:57;;;;;;;;;;;20.80;51.10;;;;;;1472276;79;1090;-52
2023/08/30 01:42:59;;;;;;;;;;;20.80;51.20;;;;;;1462820;79;719;-53
2023/08/30 01:45:01;;;;;;;;;;;20.70;51.10;;;;;;1463813;79;749;-55
2023/08/30 01:47:02;;;;;;;;;;;20.70;51.10;;;;;;1455395;79;1929;-54
2023/08/30 01:49:04;;;;;;;;;;;20.70;51.00;;;;;;1466253;79;1556;-54
2023/08/30 01:51:07;;;;;;;;;;;20.70;51.00;;;;;;1468598;79;1164;-52
2023/08/30 01:53:09;;;;;;;;;;;20.70;51.00;;;;;;1458370;79;744;-53
2023/08/30 01:55:11;;;;;;;;;;;20.80;51.00;;;;;;1463308;79;806;-54
2023/08/30 01:57:13;;;;;;;;;;;20.80;51.00;;;;;;1461959;79;823;-53
2023/08/30 01:59:15;;;;;;;;;;;20.80;50.90;;;;;;1470570;79;1174;-53
2023/08/30 02:01:16;;;;;;;;;;;20.80;50.90;;;;;;1466168;79;713;-55
2023/08/30 02:03:18;;;;;;;;;;;20.80;50.80;;;;;;1468917;79;1609;-55
2023/08/30 02:05:20;;;;;;;;;;;20.80;50.90;;;;;;1465811;79;722;-54
2023/08/30 02:07:36;;;;;;;;;;;20.70;50.80;;;;;;1462751;79;1939;-54
2023/08/30 02:09:42;;;;;;;;;;;20.70;50.80;;;;;;1462255;79;1157;-53
2023/08/30 02:11:44;;;;;;;;;;;20.80;50.90;;;;;;1458749;79;1690;-52
2023/08/30 02:13:46;;;;;;;;;;;20.80;50.80;;;;;;1451781;79;757;-52
2023/08/30 02:15:48;;;;;;;;;;;20.70;50.80;;;;;;1475850;79;1440;-51
2023/08/30 02:17:50;;;;;;;;;;;20.80;50.80;;;;;;1451895;79;732;-53
2023/08/30 02:19:53;;;;;;;;;;;20.80;50.70;;;;;;1461553;79;1142;-54
2023/08/30 02:21:55;;;;;;;;;;;20.80;50.70;;;;;;1467062;79;743;-53
2023/08/30 02:23:57;;;;;;;;;;;20.80;50.70;;;;;;1480435;79;716;-52
2023/08/30 02:25:59;;;;;;;;;;;20.80;50.70;;;;;;1470707;79;745;-51
2023/08/30 02:28:01;;;;;;;;;;;20.80;50.70;;;;;;1454225;79;1923;-52
2023/08/30 02:30:04;;;;;;;;;;;20.80;50.50;;;;;;1462592;79;1425;-52
2023/08/30 02:32:06;;;;;;;;;;;20.80;50.50;;;;;;1467533;79;752;-52
2023/08/30 02:34:08;;;;;;;;;;;20.80;50.70;;;;;;1466963;79;731;-53
2023/08/30 02:36:10;;;;;;;;;;;20.80;50.50;;;;;;1469633;79;753;-51
2023/08/30 02:38:12;;;;;;;;;;;20.80;50.50;;;;;;1470115;79;731;-54
2023/08/30 02:40:14;;;;;;;;;;;20.80;50.50;;;;;;1463775;79;1140;-53
2023/08/30 02:42:16;;;;;;;;;;;20.80;50.50;;;;;;1468228;79;702;-52
2023/08/30 02:44:18;;;;;;;;;;;20.80;50.50;;;;;;1467545;79;1315;-53
2023/08/30 02:46:20;;;;;;;;;;;20.80;50.50;;;;;;1458224;79;706;-52
2023/08/30 02:48:22;;;;;;;;;;;20.80;50.50;;;;;;1471025;79;1939;-51
2023/08/30 02:50:24;;;;;;;;;;;20.80;50.50;;;;;;1471458;79;1143;-54
2023/08/30 02:52:26;;;;;;;;;;;20.80;50.40;;;;;;1473305;79;693;-52
2023/08/30 02:54:28;;;;;;;;;;;20.80;50.40;;;;;;1470680;79;722;-54
2023/08/30 02:56:30;;;;;;;;;;;20.80;50.30;;;;;;1465706;79;740;-53
2023/08/30 02:58:32;;;;;;;;;;;20.80;50.30;;;;;;1452469;79;1316;-54
2023/08/30 03:00:34;;;;;;;;;;;20.80;50.30;;;;;;1453682;79;1144;-54
2023/08/30 03:02:36;;;;;;;;;;;20.80;50.30;;;;;;1454516;79;667;-54
2023/08/30 03:04:38;;;;;;;;;;;20.80;50.30;;;;;;1471445;79;729;-50
2023/08/30 03:06:40;;;;;;;;;;;20.80;50.30;;;;;;1476947;79;658;-54
2023/08/30 03:08:42;;;;;;;;;;;20.80;50.30;;;;;;1472312;79;1967;-52
2023/08/30 03:10:44;;;;;;;;;;;20.80;50.40;;;;;;1465203;79;1130;-54
2023/08/30 03:12:46;;;;;;;;;;;20.80;50.30;;;;;;1454991;79;1562;-53
2023/08/30 03:14:48;;;;;;;;;;;20.80;50.30;;;;;;1467625;79;697;-54
2023/08/30 03:16:49;;;;;;;;;;;20.80;50.30;;;;;;1472481;79;682;-53
2023/08/30 03:18:51;;;;;;;;;;;20.80;50.20;;;;;;1461717;79;705;-54
2023/08/30 03:21:02;;;;;;;;;;;20.80;50.20;;;;;;1466067;79;1124;-53
2023/08/30 03:23:05;;;;;;;;;;;20.80;50.20;;;;;;1451006;79;783;-55
2023/08/30 03:25:09;;;;;;;;;;;20.70;50.20;;;;;;1471625;79;704;-54
2023/08/30 03:27:10;;;;;;;;;;;20.70;50.10;;;;;;1465868;79;1509;-55
2023/08/30 03:29:12;;;;;;;;;;;20.70;50.20;;;;;;1450820;79;1973;-54
2023/08/30 03:31:18;;;;;;;;;;;20.70;50.20;;;;;;1462199;79;804;-54
2023/08/30 03:33:20;;;;;;;;;;;20.70;50.20;;;;;;1468680;79;1825;-53
2023/08/30 03:35:22;;;;;;;;;;;20.80;50.20;;;;;;1468630;79;713;-55
2023/08/30 03:37:24;;;;;;;;;;;20.70;50.20;;;;;;1463177;79;776;-51
2023/08/30 03:39:26;;;;;;;;;;;20.70;50.20;;;;;;1452777;79;1174;-52
2023/08/30 03:41:28;;;;;;;;;;;20.70;50.30;;;;;;1461477;79;1564;-53
2023/08/30 03:43:30;;;;;;;;;;;20.70;50.30;;;;;;1447570;79;669;-51
2023/08/30 03:45:33;;;;;;;;;;;20.70;50.20;;;;;;1466422;79;745;-55
2023/08/30 03:47:36;;;;;;;;;;;20.70;50.30;;;;;;1468804;79;2140;-54
2023/08/30 03:49:38;;;;;;;;;;;20.60;50.00;;;;;;1468909;79;1163;-53
2023/08/30 03:51:40;;;;;;;;;;;20.70;50.30;;;;;;1462962;79;712;-52
2023/08/30 03:53:42;;;;;;;;;;;20.70;50.30;;;;;;1459677;79;644;-52
2023/08/30 03:55:44;;;;;;;;;;;20.70;50.20;;;;;;1469476;79;1583;-52
2023/08/30 03:57:45;;;;;;;;;;;20.70;50.20;;;;;;1464998;79;713;-51
2023/08/30 03:59:47;;;;;;;;;;;20.70;50.20;;;;;;1469361;79;1141;-54
2023/08/30 04:01:49;;;;;;;;;;;20.60;50.10;;;;;;1459925;79;806;-51
2023/08/30 04:03:51;;;;;;;;;;;20.60;50.20;;;;;;1468186;79;698;-53
2023/08/30 04:05:56;;;;;;;;;;;20.60;50.20;;;;;;1469392;79;722;-53
2023/08/30 04:07:58;;;;;;;;;;;20.60;50.10;;;;;;1468867;79;1932;-54
2023/08/30 04:10:02;;;;;;;;;;;20.60;50.20;;;;;;1466400;79;1422;-55
2023/08/30 04:12:04;;;;;;;;;;;20.70;50.30;;;;;;1467437;79;797;-53
2023/08/30 04:14:07;;;;;;;;;;;20.60;50.20;;;;;;1469137;79;779;-54
2023/08/30 04:16:09;;;;;;;;;;;20.60;50.20;;;;;;1467252;79;774;-51
2023/08/30 04:18:11;;;;;;;;;;;20.60;50.20;;;;;;1469716;79;740;-54
2023/08/30 04:20:13;;;;;;;;;;;20.60;50.10;;;;;;1464964;79;1140;-53
2023/08/30 04:22:15;;;;;;;;;;;20.60;50.20;;;;;;1464131;79;770;-50
2023/08/30 04:24:17;;;;;;;;;;;20.70;50.30;;;;;;1468887;79;1442;-52
2023/08/30 04:26:18;;;;;;;;;;;20.60;50.10;;;;;;1468340;79;699;-53
2023/08/30 04:28:20;;;;;;;;;;;20.50;50.20;;;;;;1469317;79;1935;-52
2023/08/30 04:30:22;;;;;;;;;;;20.60;50.10;;;;;;1442551;80;1096;-52
2023/08/30 04:32:24;;;;;;;;;;;20.60;50.20;;;;;;1466444;79;792;-53
2023/08/30 04:34:26;;;;;;;;;;;20.50;50.20;;;;;;1466848;79;693;-52
2023/08/30 04:36:28;;;;;;;;;;;20.60;50.20;;;;;;1462032;79;1554;-53
2023/08/30 04:38:30;;;;;;;;;;;20.50;50.30;;;;;;1466592;79;677;-54
2023/08/30 04:40:32;;;;;;;;;;;20.50;50.20;;;;;;1465933;79;1159;-52
2023/08/30 04:42:34;;;;;;;;;;;20.50;50.30;;;;;;1467958;79;684;-52
2023/08/30 04:44:35;;;;;;;;;;;20.50;50.30;;;;;;1464798;79;868;-53
2023/08/30 04:46:37;;;;;;;;;;;20.50;50.20;;;;;;1466752;79;755;-52
2023/08/30 04:48:39;;;;;;;;;;;20.50;50.30;;;;;;1462689;79;1943;-51
2023/08/30 04:50:41;;;;;;;;;;;20.50;50.40;;;;;;1463927;79;1474;-54
2023/08/30 04:52:43;;;;;;;;;;;20.50;50.40;;;;;;1462686;79;675;-53
2023/08/30 04:54:45;;;;;;;;;;;20.50;50.40;;;;;;1468700;79;786;-53
2023/08/30 04:56:47;;;;;;;;;;;20.40;50.30;;;;;;1469296;79;730;-52
2023/08/30 04:58:50;;;;;;;;;;;20.40;50.40;;;;;;1468218;79;664;-54
2023/08/30 05:00:51;;;;;;;;;;;20.50;50.50;;;;;;1468265;79;1182;-54
2023/08/30 05:02:53;;;;;;;;;;;20.50;50.50;;;;;;1451071;79;710;-52
2023/08/30 05:04:55;;;;;;;;;;;20.40;50.40;;;;;;1474339;79;1600;-53
2023/08/30 05:06:57;;;;;;;;;;;20.40;50.50;;;;;;1469114;79;746;-52
2023/08/30 05:08:59;;;;;;;;;;;20.50;50.60;;;;;;1458138;79;1921;-51
2023/08/30 05:11:02;;;;;;;;;;;20.40;50.50;;;;;;1465541;79;1097;-53
2023/08/30 05:13:04;;;;;;;;;;;20.50;50.60;;;;;;1474766;79;694;-54
2023/08/30 05:15:07;;;;;;;;;;;20.40;50.50;;;;;;1466044;79;744;-54
2023/08/30 05:17:08;;;;;;;;;;;20.50;50.70;;;;;;1467386;79;676;-53
2023/08/30 05:19:10;;;;;;;;;;;20.50;50.60;;;;;;1478424;79;1572;-52
2023/08/30 05:21:12;;;;;;;;;;;20.50;50.60;;;;;;1457111;79;725;-54
2023/08/30 05:23:14;;;;;;;;;;;20.50;50.50;;;;;;1465207;79;700;-51
2023/08/30 05:25:16;;;;;;;;;;;20.50;50.50;;;;;;1467459;79;829;-55
2023/08/30 05:27:18;;;;;;;;;;;20.50;50.50;;;;;;1459940;79;693;-52
2023/08/30 05:29:20;;;;;;;;;;;20.50;50.50;;;;;;1463925;79;1936;-53
2023/08/30 05:31:22;;;;;;;;;;;20.60;50.60;;;;;;1465921;79;845;-52
2023/08/30 05:33:23;;;;;;;;;;;20.60;50.50;;;;;;1465582;79;1456;-50
2023/08/30 05:35:25;;;;;;;;;;;20.50;50.50;;;;;;1475013;79;683;-52
2023/08/30 05:37:27;;;;;;;;;;;20.50;50.50;;;;;;1467584;79;704;-51
2023/08/30 05:39:29;;;;;;;;;;;21.10;50.90;;;;;;1457479;79;1152;-54
2023/08/30 05:41:31;;;;;;;;;;;20.50;50.50;;;;;;1474387;79;680;-53
2023/08/30 05:43:33;;;;;;;;;;;20.50;50.60;;;;;;1474944;78;764;-53
2023/08/30 05:45:35;;;;;;;;;;;20.50;50.50;;;;;;1471781;78;881;-52
2023/08/30 05:47:36;;;;;;;;;;;20.50;50.60;;;;;;1469809;79;1485;-54
2023/08/30 05:49:38;;;;;;;;;;;20.50;50.60;;;;;;1457528;79;1937;-53
2023/08/30 05:51:40;;;;;;;;;;;20.50;50.70;;;;;;1463040;79;676;-53
2023/08/30 05:53:42;;;;;;;;;;;20.50;50.70;;;;;;1460976;79;681;-52
2023/08/30 05:55:44;;;;;;;;;;;20.50;50.70;;;;;;1476030;79;1056;-55
2023/08/30 05:57:46;;;;;;;;;;;20.50;50.80;;;;;;1469995;79;796;-54
2023/08/30 05:59:48;;;;;;;;;;;20.50;50.80;;;;;;1472501;79;1133;-54
2023/08/30 06:01:50;;;;;;;;;;;20.50;50.80;;;;;;1461949;79;1474;-54
2023/08/30 06:03:52;;;;;;;;;;;20.50;50.90;;;;;;1457065;79;710;-53
2023/08/30 06:05:54;;;;;;;;;;;20.50;51.00;;;;;;1467682;79;712;-54
2023/08/30 06:07:57;;;;;;;;;;;20.50;51.00;;;;;;1468824;79;673;-54
2023/08/30 06:09:58;;;;;;;;;;;20.50;51.10;;;;;;1458176;79;1932;-54
2023/08/30 06:12:00;;;;;;;;;;;20.40;51.00;;;;;;1474760;79;691;-52
2023/08/30 06:14:02;;;;;;;;;;;20.50;51.20;;;;;;1451977;79;615;-53
2023/08/30 06:16:04;;;;;;;;;;;20.50;51.20;;;;;;1466700;79;1562;-53
2023/08/30 06:18:06;;;;;;;;;;;20.50;51.20;;;;;;1455028;79;706;-51
2023/08/30 06:20:09;;;;;;;;;;;20.50;51.30;;;;;;1469840;79;1268;-52
2023/08/30 06:22:11;;;;;;;;;;;20.50;51.30;;;;;;1465421;79;742;-52
2023/08/30 06:24:12;;;;;;;;;;;20.50;51.30;;;;;;1454267;79;754;-54
2023/08/30 06:26:14;;;;;;;;;;;20.50;51.30;;;;;;1465801;79;743;-53
2023/08/30 06:28:16;;;;;;;;;;;20.50;51.30;;;;;;1469709;79;674;-54
2023/08/30 06:30:18;;;;;;;;;;;20.50;51.30;;;;;;1470661;78;1918;-54
2023/08/30 06:32:20;;;;;;;;;;;20.60;51.30;;;;;;1461034;79;783;-52
2023/08/30 06:34:22;;;;;;;;;;;20.60;51.30;;;;;;1468048;79;812;-51
2023/08/30 06:36:24;;;;;;;;;;;20.60;51.30;;;;;;1468077;79;716;-54
2023/08/30 06:38:26;;;;;;;;;;;20.60;51.30;;;;;;1469832;79;744;-51
2023/08/30 06:40:28;;;;;;;;;;;20.60;51.30;;;;;;1462826;79;1094;-54
2023/08/30 06:42:30;;;;;;;;;;;20.60;51.30;;;;;;1468084;79;935;-53
2023/08/30 06:44:31;;;;;;;;;;;20.60;51.30;;;;;;1473131;79;1569;-52
2023/08/30 06:46:33;;;;;;;;;;;20.70;51.30;;;;;;1467586;79;736;-55
2023/08/30 06:48:35;;;;;;;;;;;20.60;51.30;;;;;;1468002;79;1947;-54
2023/08/30 06:50:37;;;;;;;;;;;20.60;51.20;;;;;;1465854;79;1144;-52
2023/08/30 06:52:39;;;;;;;;;;;20.60;51.30;;;;;;1451566;79;722;-52
2023/08/30 06:54:41;;;;;;;;;;;20.60;51.30;;;;;;1469582;79;684;-55
2023/08/30 06:56:44;;;;;;;;;;;20.60;51.30;;;;;;1472378;79;762;-52
2023/08/30 06:58:46;;;;;;;;;;;20.70;51.50;;;;;;1464211;79;1835;-52
2023/08/30 07:00:48;;;;;;;;;;;20.70;51.50;;;;;;1469399;79;1118;-54
2023/08/30 07:02:50;;;;;;;;;;;20.60;51.30;;;;;;1471312;79;734;-52
2023/08/30 07:04:52;;;;;;;;;;;20.70;51.40;;;;;;1467286;79;933;-51
2023/08/30 07:06:54;;;;;;;;;;;20.60;51.30;;;;;;1454894;79;753;-53
2023/08/30 07:08:56;;;;;;;;;;;20.70;51.50;;;;;;1467140;79;1907;-53
2023/08/30 07:10:57;;;;;;;;;;;20.70;51.40;;;;;;1462064;79;1120;-54
2023/08/30 07:13:00;;;;;;;;;;;20.60;51.40;;;;;;1467346;79;1505;-53
2023/08/30 07:15:03;;;;;;;;;;;20.70;51.50;;;;;;1463652;79;697;-54
2023/08/30 07:17:05;;;;;;;;;;;20.70;51.60;;;;;;1467083;79;701;-51
2023/08/30 07:19:07;;;;;;;;;;;20.70;51.60;;;;;;1459978;78;818;-52
2023/08/30 07:21:09;;;;;;;;;;;20.70;51.60;;;;;;1472420;79;722;-52
2023/08/30 07:23:11;;;;;;;;;;;20.70;51.50;;;;;;1462486;79;659;-54
2023/08/30 07:25:13;;;;;;;;;;;20.70;51.60;;;;;;1466368;79;1568;-52
2023/08/30 07:27:15;;;;;;;;;;;20.70;51.60;;;;;;1478265;79;735;-55
2023/08/30 07:29:17;;;;;;;;;;;20.60;51.50;;;;;;1456826;79;1932;-53
2023/08/30 07:31:19;;;;;;;;;;;20.70;51.70;;;;;;1472280;79;697;-54
2023/08/30 07:33:21;;;;;;;;;;;20.70;51.60;;;;;;1475090;79;803;-53
2023/08/30 07:35:23;;;;;;;;;;;20.70;51.60;;;;;;1470291;79;713;-52
2023/08/30 07:37:25;;;;;;;;;;;20.70;51.80;;;;;;1468006;79;693;-53
2023/08/30 07:39:27;;;;;;;;;;;20.70;51.90;;;;;;1457386;79;1606;-53
2023/08/30 07:41:29;;;;;;;;;;;20.60;51.80;;;;;;1462172;79;683;-52
2023/08/30 07:43:31;;;;;;;;;;;20.70;51.80;;;;;;1468344;79;706;-52
2023/08/30 07:45:33;;;;;;;;;;;20.60;51.70;;;;;;1467500;79;691;-54
2023/08/30 07:47:35;;;;;;;;;;;20.60;51.80;;;;;;1469260;79;674;-55
2023/08/30 07:49:37;;;;;;;;;;;20.60;51.90;;;;;;1456393;79;1942;-53
2023/08/30 07:51:38;;;;;;;;;;;20.60;51.80;;;;;;1465175;79;792;-54
2023/08/30 07:53:40;;;;;;;;;;;20.60;51.80;;;;;;1452300;79;1477;-51
2023/08/30 07:55:42;;;;;;;;;;;20.60;51.80;;;;;;1467040;79;712;-54
2023/08/30 07:57:44;;;;;;;;;;;20.60;51.80;;;;;;1454615;79;705;-51
2023/08/30 07:59:46;;;;;;;;;;;20.60;51.90;;;;;;1463715;79;1156;-52
2023/08/30 08:01:48;;;;;;;;;;;20.60;52.00;;;;;;1467365;79;758;-54
2023/08/30 08:03:50;;;;;;;;;;;20.60;52.00;;;;;;1463291;79;695;-53
2023/08/30 08:05:51;;;;;;;;;;;20.70;52.20;;;;;;1468633;79;698;-53
2023/08/30 08:07:53;;;;;;;;;;;20.60;52.00;;;;;;1461955;79;1539;-54
2023/08/30 08:09:55;;;;;;;;;;;20.60;52.10;;;;;;1459249;79;1931;-52
2023/08/30 08:11:57;;;;;;;;;;;20.60;51.90;;;;;;1465189;79;811;-53
2023/08/30 08:13:59;;;;;;;;;;;20.60;51.90;;;;;;1462978;79;725;-54
2023/08/30 08:16:01;;;;;;;;;;;20.70;52.10;;;;;;1469773;79;759;-52
2023/08/30 08:18:03;;;;;;;;;;;20.70;52.10;;;;;;1467661;79;743;-53
2023/08/30 08:20:05;;;;;;;;;;;20.70;52.10;;;;;;1459676;79;1131;-52
2023/08/30 08:22:08;;;;;;;;;;;20.60;51.90;;;;;;1463680;79;1593;-54
2023/08/30 08:24:10;;;;;;;;;;;20.70;52.00;;;;;;1463600;79;736;-54
2023/08/30 08:26:11;;;;;;;;;;;20.60;51.90;;;;;;1451039;79;710;-53
2023/08/30 08:28:13;;;;;;;;;;;20.70;52.00;;;;;;1464324;79;662;-53
2023/08/30 08:30:15;;;;;;;;;;;20.70;52.00;;;;;;1468730;78;1956;-54
2023/08/30 08:32:17;;;;;;;;;;;20.70;51.90;;;;;;1466542;79;704;-52
2023/08/30 08:34:19;;;;;;;;;;;20.70;51.80;;;;;;1450983;79;777;-51
2023/08/30 08:36:21;;;;;;;;;;;20.70;51.80;;;;;;1468167;79;1577;-53
2023/08/30 08:38:23;;;;;;;;;;;20.70;51.90;;;;;;1463247;79;759;-50
2023/08/30 08:40:25;;;;;;;;;;;20.00;51.50;;;;;;1463140;79;1166;-52
2023/08/30 08:42:27;;;;;;;;;;;20.70;51.90;;;;;;1465611;79;757;-54
2023/08/30 08:44:30;;;;;;;;;;;20.70;51.80;;;;;;1471034;79;701;-54
2023/08/30 08:46:32;;;;;;;;;;;20.80;51.70;;;;;;1469028;79;704;-53
2023/08/30 08:48:34;;;;;;;;;;;20.80;51.70;;;;;;1459635;79;678;-52
2023/08/30 08:50:36;;;;;;;;;;;20.80;51.60;;;;;;1466663;79;1966;-53
2023/08/30 08:52:38;;;;;;;;;;;20.80;51.60;;;;;;1467623;79;726;-54
2023/08/30 08:54:40;;;;;;;;;;;20.90;51.60;;;;;;1464600;79;698;-54
2023/08/30 08:56:42;;;;;;;;;;;20.90;51.60;;;;;;1462911;79;670;-53
2023/08/30 08:58:43;;;;;;;;;;;20.90;51.60;;;;;;1464895;79;837;-52
2023/08/30 09:00:46;;;;;;;;;;;20.80;51.40;;;;;;1469101;79;1141;-54
2023/08/30 09:02:50;;;;;;;;;;;20.80;51.40;;;;;;1462059;79;769;-55
2023/08/30 09:04:52;;;;;;;;;;;20.90;51.50;;;;;;1468191;79;1545;-53
2023/08/30 09:06:54;;;;;;;;;;;20.90;51.40;;;;;;1478344;79;699;-55
2023/08/30 09:08:56;;;;;;;;;;;20.90;51.30;;;;;;1468322;79;702;-55
2023/08/30 09:10:58;;;;;;;;;;;20.90;51.30;;;;;;1466692;79;1948;-55
2023/08/30 09:13:00;;;;;;;;;;;20.90;51.30;;;;;;1470697;79;714;-55
2023/08/30 09:15:04;;;;;;;;;;;20.90;51.00;;;;;;1463866;79;686;-52
2023/08/30 09:17:06;;;;;;;;;;;20.80;50.80;;;;;;1466356;79;948;-55
2023/08/30 09:19:10;;;;;;;;;;;20.90;51.10;;;;;;1476115;79;1497;-53
2023/08/30 09:21:11;;;;;;;;;;;20.90;51.10;;;;;;1462674;79;1941;-55
2023/08/30 09:23:20;;;;;;;;;;;20.90;51.10;;;;;;1454438;79;678;-53
2023/08/30 09:25:25;;;;;;;;;;;20.90;51.10;;;;;;1468060;79;756;-54
2023/08/30 09:27:29;;;;;;;;;;;20.90;51.20;;;;;;1459330;79;811;-53
2023/08/30 09:29:31;;;;;;;;;;;20.90;51.20;;;;;;1464141;79;1970;-55
2023/08/30 09:31:34;;;;;;;;;;;20.90;51.00;;;;;;1471307;79;715;-55
2023/08/30 09:33:36;;;;;;;;;;;20.90;51.00;;;;;;1468713;79;1551;-54
2023/08/30 09:35:42;;;;;;;;;;;20.90;51.00;;;;;;1478042;79;699;-52
2023/08/30 09:37:47;;;;;;;;;;;20.90;51.10;;;;;;1467097;79;1872;-52
2023/08/30 09:39:50;;;;;;;;;;;20.90;51.20;;;;;;1471544;79;1155;-52
2023/08/30 09:41:54;;;;;;;;;;;20.90;51.00;;;;;;1468889;79;1264;-52
2023/08/30 09:43:56;;;;;;;;;;;20.90;50.80;;;;;;1454615;79;763;-54
2023/08/30 09:45:58;;;;;;;;;;;20.90;50.80;;;;;;1472147;79;1580;-53
2023/08/30 09:48:01;;;;;;;;;;;20.90;50.90;;;;;;1469818;79;802;-53
2023/08/30 09:50:03;;;;;;;;;;;20.90;50.80;;;;;;1468670;79;1931;-52
2023/08/30 09:52:08;;;;;;;;;;;20.90;50.70;;;;;;1462853;79;799;-54
2023/08/30 09:54:11;;;;;;;;;;;20.90;50.60;;;;;;1467745;79;1554;-54
2023/08/30 09:56:14;;;;;;;;;;;20.90;50.50;;;;;;1469353;79;695;-52
2023/08/30 09:58:15;;;;;;;;;;;20.90;50.60;;;;;;1469676;79;762;-52
2023/08/30 10:00:17;;;;;;;;;;;21.00;50.60;;;;;;1473961;79;1630;-50
2023/08/30 10:02:19;;;;;;;;;;;21.00;50.20;;;;;;1457809;79;881;-55
2023/08/30 10:04:21;;;;;;;;;;;21.00;50.00;;;;;;1462919;79;717;-53
2023/08/30 10:06:24;;;;;;;;;;;20.90;50.10;;;;;;1466098;79;744;-54
2023/08/30 10:08:29;;;;;;;;;;;20.90;50.20;;;;;;1468848;79;712;-53
2023/08/30 10:10:30;;;;;;;;;;;21.00;50.30;;;;;;1464512;79;1953;-53
2023/08/30 10:12:32;;;;;;;;;;;21.00;50.20;;;;;;1465303;79;684;-55
2023/08/30 10:14:35;;;;;;;;;;;21.00;50.20;;;;;;1462432;79;1428;-52
2023/08/30 10:16:38;;;;;;;;;;;21.00;50.20;;;;;;1463828;79;697;-54
2023/08/30 10:18:40;;;;;;;;;;;21.00;50.10;;;;;;1451972;79;747;-54
2023/08/30 10:20:42;;;;;;;;;;;21.00;50.10;;;;;;1465485;79;1194;-53
2023/08/30 10:22:44;;;;;;;;;;;21.10;50.20;;;;;;1452604;79;700;-55
2023/08/30 10:24:47;;;;;;;;;;;21.00;50.10;;;;;;1460582;79;696;-52
2023/08/30 10:26:49;;;;;;;;;;;21.10;50.10;;;;;;1486750;79;730;-55
2023/08/30 10:28:52;;;;;;;;;;;21.10;50.00;;;;;;1462734;79;1582;-54
2023/08/30 10:30:54;;;;;;;;;;;21.00;49.90;;;;;;1459576;79;1933;-52
2023/08/30 10:32:56;;;;;;;;;;;21.10;49.70;;;;;;1459916;79;720;-54
2023/08/30 10:34:59;;;;;;;;;;;21.10;49.70;;;;;;1463347;79;795;-52
2023/08/30 10:37:01;;;;;;;;;;;21.10;49.60;;;;;;1470381;79;1193;-54
2023/08/30 10:39:04;;;;;;;;;;;21.10;49.50;;;;;;1466901;79;677;-51
2023/08/30 10:41:09;;;;;;;;;;;21.00;49.40;;;;;;1447223;80;1253;-54
2023/08/30 10:43:11;;;;;;;;;;;21.10;49.50;;;;;;1468604;79;1552;-52
2023/08/30 10:45:13;;;;;;;;;;;21.10;49.40;;;;;;1475981;79;759;-55
2023/08/30 10:47:20;;;;;;;;;;;21.10;49.40;;;;;;1469240;79;731;-54
2023/08/30 10:49:22;;;;;;;;;;;21.10;49.40;;;;;;1443706;79;1501;-53
2023/08/30 10:51:37;;;;;;;;;;;21.10;49.20;;;;;;1469564;79;1923;-53
2023/08/30 10:53:39;;;;;;;;;;;21.10;48.90;;;;;;1474614;79;700;-53
2023/08/30 10:55:41;;;;;;;;;;;21.20;49.00;;;;;;1465599;79;784;-53
2023/08/30 10:57:43;;;;;;;;;;;21.20;48.80;;;;;;1467392;79;1565;-55
2023/08/30 11:00:04;;;;;;;;;;;21.20;49.00;;;;;;1462289;79;1141;-53
2023/08/30 11:02:05;;;;;;;;;;;21.10;49.20;;;;;;1453711;79;688;-53
2023/08/30 11:04:07;;;;;;;;;;;21.10;49.20;;;;;;1467870;78;697;-53
2023/08/30 11:06:11;;;;;;;;;;;21.10;48.90;;;;;;1470317;79;758;-52
2023/08/30 11:08:13;;;;;;;;;;;21.20;48.40;;;;;;1453512;79;1836;-53
2023/08/30 11:10:15;;;;;;;;;;;21.20;48.40;;;;;;1464211;79;1943;-55
2023/08/30 11:12:18;;;;;;;;;;;21.20;48.60;;;;;;1467188;79;731;-53
2023/08/30 11:14:20;;;;;;;;;;;21.20;48.80;;;;;;1474914;79;718;-54
2023/08/30 11:16:22;;;;;;;;;;;21.20;49.00;;;;;;1479473;79;738;-53
2023/08/30 11:18:24;;;;;;;;;;;21.20;49.20;;;;;;1475261;79;701;-55
2023/08/30 11:20:26;;;;;;;;;;;21.30;49.40;;;;;;1455074;79;1181;-53
2023/08/30 11:22:28;;;;;;;;;;;21.20;49.40;;;;;;1455970;79;725;-53
2023/08/30 11:24:30;;;;;;;;;;;21.30;49.80;;;;;;1469399;79;1373;-52
2023/08/30 11:26:31;;;;;;;;;;;21.30;49.80;;;;;;1470755;79;706;-54
2023/08/30 11:28:33;;;;;;;;;;;21.30;49.80;;;;;;1459553;79;762;-52
2023/08/30 11:30:37;;;;;;;;;;;21.30;49.80;;;;;;1466230;79;1947;-54
2023/08/30 11:32:39;;;;;;;;;;;21.30;49.90;;;;;;1472215;79;1770;-53
2023/08/30 11:34:41;;;;;;;;;;;21.30;50.00;;;;;;1465020;79;828;-52
2023/08/30 11:36:43;;;;;;;;;;;21.30;50.10;;;;;;1468585;79;684;-52
2023/08/30 11:38:45;;;;;;;;;;;21.30;50.20;;;;;;1461312;79;1557;-51
2023/08/30 11:40:49;;;;;;;;;;;21.30;50.20;;;;;;1459200;79;1251;-53
2023/08/30 11:42:51;;;;;;;;;;;21.30;50.20;;;;;;1466820;79;698;-52
2023/08/30 11:44:53;;;;;;;;;;;21.30;50.30;;;;;;1456841;79;722;-54
2023/08/30 11:46:59;;;;;;;;;;;21.40;50.40;;;;;;1464300;79;685;-55
2023/08/30 11:49:02;;;;;;;;;;;21.40;50.40;;;;;;1465930;79;759;-54
2023/08/30 11:51:05;;;;;;;;;;;21.40;50.40;;;;;;1466955;79;1947;-51
2023/08/30 11:53:07;;;;;;;;;;;21.40;50.50;;;;;;1461739;79;1334;-53
2023/08/30 11:55:09;;;;;;;;;;;21.40;50.50;;;;;;1470848;79;713;-55
2023/08/30 11:57:11;;;;;;;;;;;21.40;50.50;;;;;;1466144;79;727;-52
2023/08/30 11:59:19;;;;;;;;;;;21.40;50.30;;;;;;1458507;79;1169;-52
2023/08/30 12:01:21;;;;;;;;;;;21.40;49.80;;;;;;1465527;79;721;-54
2023/08/30 12:03:23;;;;;;;;;;;21.40;49.40;;;;;;1471671;79;690;-55
2023/08/30 12:05:25;;;;;;;;;;;21.40;48.90;;;;;;1468252;79;692;-53
2023/08/30 12:07:27;;;;;;;;;;;21.40;48.70;;;;;;1459958;79;1567;-54
2023/08/30 12:09:32;;;;;;;;;;;21.40;48.20;;;;;;1461448;79;1148;-54